KMRC/MRC METAR and TAF weather

Enter ICAO airport designator
Station Type Date Time Source
KMRC METAR 2019/02/22 22:35 UTC NOAA

KMRC 222235Z AUTO 35004KT 10SM OVC005 09/09 A3017 RMK A01


Station Type Date Time Source
KMRC Decoded METAR 2019/02/22 22:35 UTC NOAA

Columbia / Maury County, TN, United States (KMRC) 35-33N 087-11W
Feb 22, 2019 - 05:35 PM EST / 2019.02.22 2235 UTC
Wind: from the N (350 degrees) at 5 MPH (4 KT):0
Visibility: 10 mile(s):0
Sky conditions: overcast
Temperature: 48 F (9 C)
Dew Point: 48 F (9 C)
Relative Humidity: 100%
Pressure (altimeter): 30.17 in. Hg (1021 hPa)
ob: KMRC 222235Z AUTO 35004KT 10SM OVC005 09/09 A3017 RMK A01
cycle: 22

Station Type Date Time Source
KMRC TAF 2009/08/31 19:45 UTC NOAA

METAR KMRC 311945Z AUTO 06008KT 10SM CLR 26/12 A3010
RMK AO1 T02550116 $


Example: see airport list